LEPO2: Verdigris, River, Lenapah, OK

Data processed at Sat Jan 12 2019 23:32


All information presented herein is the property of the government of the United States of America and may be revised or deleted at any time without prior notice.
Dissemination of this information without the expressed written consent of the Public Affairs Office, Tulsa District U.S. Army Corps of Engineers is strictly prohibited.
These data are gathered electronically and, as presented, have not undergone any form of quality control. These data are not guaranteed to be valid or correct.
Go to home page.
Go to station list.
Go to home page.

Upstream stations:

Downstream station:
Previous Day
Next Day
Current Day
    
SHEF ID:       LEPO2     Verdigris River near Lenapah, OK
STATION TYPE:  

               PRECIP     STAGE  STAGE(2)  RIV-FLOW   VOLTAGE  BAT-LOAD
                   in        ft        ft       cfs      volt      volt
              Ccp-Rev   Ccp-Rev   Ccp-Rev   Ccp-Rev   Ccp-Rev   Ccp-Rev
(US/Central)
01/12 00:00      0.09     11.88     12.29      7884     12.80     11.48
01/12 01:00      0.09     12.67     13.12      8871     12.80     11.48
01/12 02:00      0.11     13.58     14.03     10046     12.80     11.48
01/12 03:00      0.12     14.58     15.04     11383     12.80     11.48
01/12 04:00      0.06     15.61     16.09     12807     12.80     11.48
01/12 05:00      0.05     16.49     17.14     14060     12.80     11.42
01/12 06:00      0.04     17.38     18.08     15360     12.80     11.42
01/12 07:00      0.11     18.39     18.89     16872     12.80     11.42
01/12 08:00      0.21     19.17     19.67     18067     12.80     11.42
01/12 09:00      0.08     19.83     20.41     19095     12.90     11.42
01/12 10:00      0.02     20.55     21.12     20234     12.90     11.48
01/12 11:00      0.02     21.23     21.73     21327     13.20     11.60
01/12 12:00      0.02     21.50     22.22     21765     13.50     11.83
01/12 13:00      0.01     21.97     22.59     22534     13.50     12.19
01/12 14:00      0.00     22.33     22.83     23128     13.40     12.13
01/12 15:00      0.00     22.40     22.97     23244     13.30     12.07
01/12 16:00      0.00     22.60     23.06     23576     13.20     12.01
01/12 17:00      0.00     22.55     23.06     23493     13.00     11.77
01/12 18:00      0.00     22.48     22.98     23376     13.00     11.72
01/12 19:00      0.00     22.35     22.86     23161     12.90     11.60
01/12 20:00      0.00     22.19     22.70     22896     12.90     11.60
01/12 21:00      0.00     21.99     22.47     22567     12.80     11.54
01/12 22:00      0.00     21.76     22.19     22190     12.80     11.48
01/12 23:00      0.00     21.45     21.86     21684     12.80     11.48